Time;durP1;ratioP1;P1;durP2;ratioP2;P2;SDS_P1;SDS_P2;PMS_P1;PMS_P2;Temp;Humidity;BMP_temperature;BMP_pressure;BME280_temperature;BME280_humidity;BME280_pressure;Samples;Min_cycle;Max_cycle;Signal;HPM_P1;HPM_P2
2021/05/11 07:41:54;;;;;;;1.58;0.75;;;24.90;90.10;;;;;;3990807;23;20709;-73
2021/05/11 07:44:20;;;;;;;2.33;0.80;;;24.00;91.00;;;;;;4953799;28;20247;-75
2021/05/11 07:46:53;;;;;;;1.77;0.80;;;23.50;91.50;;;;;;4957181;29;20255;-73
2021/05/11 07:49:38;;;;;;;2.13;0.63;;;23.50;92.30;;;;;;4953833;28;20232;-73
2021/05/11 07:56:28;;;;;;;3.65;1.40;;;23.00;91.60;;;;;;4957388;29;20236;-73
2021/05/11 08:14:39;;;;;;;3.58;0.88;;;22.00;93.90;;;;;;4937974;29;20211;-73
2021/05/11 08:17:06;;;;;;;3.50;0.95;;;22.10;94.00;;;;;;4937513;29;20201;-72
2021/05/11 08:19:55;;;;;;;1.60;0.80;;;21.90;94.10;;;;;;4938123;29;20236;-73
2021/05/11 08:27:53;;;;;;;2.97;0.80;;;21.80;94.20;;;;;;4937362;29;20221;-73
2021/05/11 08:30:20;;;;;;;3.05;0.95;;;21.40;94.00;;;;;;4937545;29;20240;-73
2021/05/11 08:32:47;;;;;;;3.80;0.90;;;21.40;94.70;;;;;;4927236;29;20237;-69
2021/05/11 08:35:13;;;;;;;2.20;0.70;;;21.50;94.00;;;;;;4917233;29;20661;-68
2021/05/11 08:37:39;;;;;;;1.05;0.50;;;21.50;93.80;;;;;;4924401;29;20212;-73
2021/05/11 08:40:07;;;;;;;1.60;0.60;;;21.40;93.50;;;;;;4936182;29;20590;-69
2021/05/11 08:42:34;;;;;;;3.35;0.93;;;21.70;93.70;;;;;;4935946;29;20224;-69
2021/05/11 08:45:04;;;;;;;2.58;0.68;;;21.90;93.80;;;;;;4936214;29;20809;-70
2021/05/11 08:47:32;;;;;;;6.25;0.77;;;22.10;92.00;;;;;;4936351;29;20212;-74
2021/05/11 08:50:00;;;;;;;4.47;1.20;;;22.30;93.00;;;;;;4936350;29;20627;-71
2021/05/11 08:52:32;;;;;;;2.88;0.70;;;22.40;92.90;;;;;;4936270;29;20240;-80
2021/05/11 09:06:24;;;;;;;3.63;0.57;;;22.80;91.70;;;;;;4936994;29;20216;-72
2021/05/11 09:09:06;;;;;;;3.33;1.00;;;22.80;91.40;;;;;;4936612;29;20224;-72
2021/05/11 09:25:49;;;;;;;1.92;0.60;;;22.00;91.60;;;;;;4936263;29;20289;-71
2021/05/11 09:28:32;;;;;;;2.55;0.60;;;22.10;91.40;;;;;;4936090;29;20205;-73
2021/05/11 09:31:06;;;;;;;1.00;0.50;;;22.00;92.40;;;;;;4936538;29;20219;-73
2021/05/11 09:33:36;;;;;;;2.03;0.50;;;21.70;92.30;;;;;;4936582;29;20208;-74
2021/05/11 09:55:58;;;;;;;3.08;1.17;;;20.60;97.80;;;;;;4936002;29;20567;-72
2021/05/11 09:58:45;;;;;;;2.92;1.25;;;20.00;98.50;;;;;;4935920;29;20228;-72
2021/05/11 10:27:24;;;;;;;3.22;1.15;;;21.00;98.20;;;;;;4935519;29;20679;-71
2021/05/11 10:41:42;;;;;;;4.28;1.10;;;22.70;94.90;;;;;;4934133;29;20209;-70
2021/05/11 10:44:31;;;;;;;1.80;0.73;;;22.50;95.00;;;;;;4932544;29;20354;-70
2021/05/11 10:47:02;;;;;;;1.77;0.70;;;22.60;94.90;;;;;;4933837;29;20213;-70
2021/05/11 10:49:30;;;;;;;3.63;0.75;;;22.40;93.60;;;;;;4935413;29;20708;-71
2021/05/11 10:52:06;;;;;;;3.30;0.70;;;22.30;93.10;;;;;;4935292;29;20232;-71
2021/05/11 10:54:37;;;;;;;4.65;0.90;;;22.10;94.00;;;;;;4935650;29;20264;-71
2021/05/11 10:57:23;;;;;;;1.27;0.75;;;21.90;93.80;;;;;;4935508;29;20624;-71
2021/05/11 10:59:58;;;;;;;1.90;0.80;;;21.90;95.30;;;;;;4935537;29;20264;-71
2021/05/11 11:02:42;;;;;;;1.20;0.60;;;22.20;95.00;;;;;;4935670;29;20255;-71
2021/05/11 11:05:09;;;;;;;1.77;0.63;;;22.10;93.70;;;;;;4935440;29;20216;-70
2021/05/11 11:07:38;;;;;;;3.53;0.73;;;22.10;93.90;;;;;;4935362;29;20267;-70
2021/05/11 11:10:08;;;;;;;2.72;0.65;;;22.30;94.50;;;;;;4935602;29;20232;-71
2021/05/11 11:12:37;;;;;;;3.22;1.00;;;22.40;94.40;;;;;;4935383;29;20236;-71
2021/05/11 11:15:10;;;;;;;3.53;0.70;;;22.60;92.50;;;;;;4935444;29;20315;-71
2021/05/11 11:17:41;;;;;;;2.47;0.50;;;22.70;92.50;;;;;;4935382;29;20213;-71
2021/05/11 11:20:11;;;;;;;2.90;0.55;;;22.70;90.80;;;;;;4937508;29;20231;-71
2021/05/11 11:25:23;;;;;;;2.33;0.68;;;22.70;90.20;;;;;;4939131;29;20216;-71
2021/05/11 11:27:49;;;;;;;2.63;0.60;;;22.60;92.50;;;;;;4939050;29;20675;-71
2021/05/11 11:30:19;;;;;;;1.63;0.68;;;22.50;92.30;;;;;;4938933;29;20801;-71
2021/05/11 11:32:45;;;;;;;1.45;0.80;;;22.20;92.70;;;;;;4938754;29;20267;-72
2021/05/11 11:35:12;;;;;;;2.65;0.70;;;21.90;93.30;;;;;;4938807;29;20212;-71
2021/05/11 11:37:39;;;;;;;1.85;0.60;;;22.30;93.30;;;;;;4938807;29;20213;-71
2021/05/11 11:40:08;;;;;;;2.70;0.70;;;22.30;91.70;;;;;;4938734;29;20240;-71
2021/05/11 11:42:37;;;;;;;2.90;0.88;;;22.40;91.70;;;;;;4938580;29;20221;-71
2021/05/11 11:45:07;;;;;;;2.00;0.70;;;22.00;92.00;;;;;;4938569;29;20212;-72
2021/05/11 11:47:42;;;;;;;3.28;0.90;;;21.90;92.40;;;;;;4938672;29;20559;-71
2021/05/11 11:50:13;;;;;;;1.98;0.45;;;21.50;92.60;;;;;;4938443;29;20236;-71
2021/05/11 11:52:44;;;;;;;1.88;0.60;;;21.70;92.60;;;;;;4938149;29;20761;-70
2021/05/11 11:57:57;;;;;;;3.42;1.10;;;21.90;91.50;;;;;;4934575;29;20201;-71
2021/05/11 12:00:25;;;;;;;2.03;0.55;;;21.50;93.40;;;;;;4937355;29;20209;-69
2021/05/11 12:02:59;;;;;;;1.58;0.57;;;21.70;93.90;;;;;;4937188;29;20275;-71
2021/05/11 12:05:29;;;;;;;3.08;0.50;;;21.90;92.60;;;;;;4936717;29;20247;-72
2021/05/11 12:08:19;;;;;;;3.38;0.80;;;22.00;92.80;;;;;;4936856;29;20227;-71
2021/05/11 12:10:46;;;;;;;0.70;0.38;;;22.00;92.70;;;;;;4937067;29;20204;-72
2021/05/11 12:13:17;;;;;;;2.10;0.68;;;22.10;92.50;;;;;;4936901;29;20256;-71
2021/05/11 12:15:43;;;;;;;3.80;0.73;;;22.10;92.60;;;;;;4936607;29;20208;-72
2021/05/11 12:18:16;;;;;;;4.72;0.73;;;22.40;92.30;;;;;;4936741;29;20272;-71
2021/05/11 12:20:43;;;;;;;2.78;0.40;;;22.90;91.80;;;;;;4936540;29;20738;-71
2021/05/11 12:23:14;;;;;;;2.28;0.80;;;22.80;91.00;;;;;;4937191;29;20213;-71
2021/05/11 12:25:41;;;;;;;1.63;0.63;;;22.90;90.60;;;;;;4937029;29;20267;-71
2021/05/11 12:28:08;;;;;;;1.55;0.82;;;22.70;91.20;;;;;;4937432;29;20204;-72
2021/05/11 12:30:39;;;;;;;3.05;0.63;;;21.80;91.30;;;;;;4937914;29;20213;-72
2021/05/11 12:33:07;;;;;;;1.50;0.47;;;21.70;93.20;;;;;;4937710;29;20320;-71
2021/05/11 12:35:34;;;;;;;3.72;0.70;;;21.60;91.60;;;;;;4935461;29;20208;-69
2021/05/11 12:38:03;;;;;;;2.35;0.70;;;21.40;91.60;;;;;;4936379;29;20564;-68
2021/05/11 12:40:52;;;;;;;3.13;0.70;;;21.30;91.60;;;;;;4936173;29;20213;-75
2021/05/11 12:43:37;;;;;;;3.40;0.75;;;21.40;92.40;;;;;;4935929;29;20221;-67
2021/05/11 12:46:14;;;;;;;4.70;0.90;;;21.40;93.10;;;;;;4937329;29;20212;-69
2021/05/11 12:48:54;;;;;;;2.80;0.60;;;21.10;92.90;;;;;;4937543;29;20378;-72
2021/05/11 12:51:33;;;;;;;4.55;0.77;;;20.50;94.40;;;;;;4937386;29;20236;-73
2021/05/11 12:54:02;;;;;;;2.78;0.95;;;20.60;95.20;;;;;;4937260;29;20698;-74
2021/05/11 12:56:42;;;;;;;1.70;0.70;;;20.40;98.70;;;;;;4937166;29;20205;-74
2021/05/11 12:59:11;;;;;;;2.47;0.60;;;19.90;98.70;;;;;;4937106;29;20228;-73
2021/05/11 13:01:51;;;;;;;4.00;1.10;;;19.10;99.90;;;;;;4937071;29;20309;-73
2021/05/11 13:16:19;;;;;;;3.70;0.73;;;16.20;99.90;;;;;;4919372;29;20284;-71
2021/05/11 13:21:38;;;;;;;4.33;0.70;;;15.60;99.90;;;;;;4936752;29;20231;-71
2021/05/11 13:26:54;;;;;;;2.90;0.80;;;15.60;99.90;;;;;;4936950;29;20268;-71
2021/05/11 13:29:32;;;;;;;1.10;0.50;;;15.60;99.90;;;;;;4936262;29;20228;-72
2021/05/11 13:32:01;;;;;;;2.60;0.80;;;15.50;99.90;;;;;;4936440;29;20327;-73
2021/05/11 13:34:27;;;;;;;1.50;1.07;;;15.50;99.90;;;;;;4936671;29;20279;-73
2021/05/11 13:36:54;;;;;;;5.07;0.70;;;15.50;99.90;;;;;;4936902;29;20260;-72
2021/05/11 13:39:21;;;;;;;1.10;0.60;;;15.50;99.90;;;;;;4937109;29;20232;-73
2021/05/11 13:41:47;;;;;;;3.30;0.70;;;15.60;99.90;;;;;;4935904;29;20209;-73
2021/05/11 13:44:13;;;;;;;3.57;0.70;;;15.70;99.90;;;;;;4936700;29;20216;-72
2021/05/11 13:46:39;;;;;;;3.23;0.80;;;15.70;99.90;;;;;;4936453;29;20212;-72
2021/05/11 13:49:06;;;;;;;4.17;0.83;;;15.70;99.90;;;;;;4936242;29;20228;-72
2021/05/11 13:51:32;;;;;;;1.00;0.67;;;15.60;99.90;;;;;;4936384;29;20237;-73
2021/05/11 13:54:01;;;;;;;3.70;0.77;;;15.70;99.90;;;;;;4936300;29;20656;-73
2021/05/11 13:56:36;;;;;;;2.93;0.80;;;15.70;99.90;;;;;;4935997;29;20228;-73
2021/05/11 14:02:03;;;;;;;2.30;0.70;;;15.70;99.90;;;;;;4936401;29;20211;-73
2021/05/11 14:04:29;;;;;;;2.70;1.00;;;15.60;99.90;;;;;;4936328;29;20677;-73
2021/05/11 14:06:56;;;;;;;5.87;0.90;;;15.60;99.90;;;;;;4936128;29;20765;-73
2021/05/11 14:09:22;;;;;;;2.60;0.90;;;15.70;99.90;;;;;;4936242;29;20229;-73
2021/05/11 14:11:49;;;;;;;3.33;0.87;;;15.70;99.90;;;;;;4935998;29;20588;-72
2021/05/11 14:14:16;;;;;;;3.13;0.97;;;15.80;99.90;;;;;;4936273;29;20600;-74
2021/05/11 14:16:44;;;;;;;5.47;1.57;;;15.80;99.90;;;;;;4930544;29;20201;-71
2021/05/11 14:19:10;;;;;;;1.57;0.80;;;15.70;99.90;;;;;;4953375;28;20720;-73
2021/05/11 14:21:37;;;;;;;1.30;1.00;;;15.80;99.90;;;;;;4955001;29;20208;-72
2021/05/11 14:24:04;;;;;;;1.90;0.90;;;15.90;99.90;;;;;;4936285;29;20213;-69
2021/05/11 14:26:30;;;;;;;1.67;0.60;;;15.90;99.90;;;;;;4935527;29;20212;-68
2021/05/11 14:28:58;;;;;;;3.37;1.10;;;15.90;99.90;;;;;;4935493;29;20229;-69
2021/05/11 14:31:25;;;;;;;2.70;0.70;;;15.80;99.90;;;;;;4935204;29;20661;-68
2021/05/11 14:33:51;;;;;;;1.27;0.70;;;16.00;99.90;;;;;;4935268;29;20209;-70
2021/05/11 14:36:18;;;;;;;4.50;0.90;;;15.90;99.90;;;;;;4935250;29;20219;-69
2021/05/11 14:38:44;;;;;;;1.63;0.67;;;15.80;99.90;;;;;;4935512;29;20648;-70
2021/05/11 14:41:11;;;;;;;3.23;0.70;;;15.90;99.90;;;;;;4935379;29;20219;-70
2021/05/11 14:43:39;;;;;;;1.80;0.80;;;15.90;99.90;;;;;;4935063;29;20220;-69
2021/05/11 14:46:09;;;;;;;0.90;0.50;;;15.80;99.90;;;;;;4935140;29;20568;-71
2021/05/11 14:48:35;;;;;;;2.63;0.60;;;15.70;99.90;;;;;;4935167;29;20291;-71
2021/05/11 14:51:03;;;;;;;3.03;0.70;;;15.80;99.90;;;;;;4935340;29;20212;-72
2021/05/11 14:53:30;;;;;;;3.13;0.70;;;16.00;99.90;;;;;;4934894;29;20628;-72
2021/05/11 14:55:58;;;;;;;2.50;0.70;;;16.20;99.90;;;;;;4937983;29;20276;-69
2021/05/11 14:58:24;;;;;;;1.97;1.00;;;16.30;99.90;;;;;;4938854;29;20228;-72
2021/05/11 15:00:51;;;;;;;1.63;0.50;;;16.40;99.90;;;;;;4938396;29;20698;-71
2021/05/11 15:03:18;;;;;;;2.73;0.90;;;16.50;99.90;;;;;;4938540;29;20216;-69
2021/05/11 15:05:44;;;;;;;2.60;0.83;;;16.70;99.90;;;;;;4938321;29;20216;-69
2021/05/11 15:08:11;;;;;;;1.87;0.67;;;16.80;99.90;;;;;;4938434;29;20328;-69
2021/05/11 15:10:38;;;;;;;1.43;0.73;;;16.80;99.90;;;;;;4938417;29;20265;-69
2021/05/11 15:13:06;;;;;;;0.73;0.50;;;16.90;99.90;;;;;;4938321;29;20252;-71
2021/05/11 15:15:34;;;;;;;2.07;0.40;;;17.10;99.90;;;;;;4937690;29;20679;-70
2021/05/11 15:18:04;;;;;;;2.63;0.73;;;17.20;99.90;;;;;;4938263;29;20220;-71
2021/05/11 15:20:33;;;;;;;1.53;0.60;;;17.10;99.90;;;;;;4938288;29;20209;-70
2021/05/11 15:22:59;;;;;;;1.03;0.37;;;17.10;99.90;;;;;;4938256;29;20224;-70
2021/05/11 15:25:27;;;;;;;1.07;0.43;;;17.10;99.90;;;;;;4938154;29;20205;-71
2021/05/11 15:27:54;;;;;;;5.93;0.73;;;17.10;99.90;;;;;;4937498;29;20213;-71
2021/05/11 15:30:22;;;;;;;0.67;0.40;;;16.90;99.90;;;;;;4937770;29;20256;-72
2021/05/11 15:32:52;;;;;;;2.47;0.70;;;16.90;99.90;;;;;;4937854;29;20236;-69
2021/05/11 15:35:21;;;;;;;1.90;0.50;;;16.80;99.90;;;;;;4937814;29;20248;-70
2021/05/11 15:37:53;;;;;;;0.50;0.40;;;16.80;99.90;;;;;;4937432;29;20623;-69
2021/05/11 15:40:21;;;;;;;0.40;0.20;;;16.70;99.90;;;;;;4937071;29;20734;-70
2021/05/11 15:42:48;;;;;;;1.53;0.70;;;16.90;99.90;;;;;;4936945;29;20232;-70
2021/05/11 15:45:15;;;;;;;2.00;0.50;;;17.10;99.90;;;;;;4937412;29;20660;-69
2021/05/11 15:47:52;;;;;;;2.07;0.50;;;17.30;99.90;;;;;;4937838;29;20216;-70
2021/05/11 15:50:20;;;;;;;3.10;0.63;;;17.40;99.90;;;;;;4937862;29;20315;-69
2021/05/11 15:52:46;;;;;;;2.30;0.60;;;17.80;99.90;;;;;;4937479;29;20707;-70
2021/05/11 15:55:14;;;;;;;1.97;0.50;;;18.00;99.90;;;;;;4937349;29;20224;-72
2021/05/11 15:57:40;;;;;;;0.97;0.60;;;18.10;99.90;;;;;;4937471;29;20208;-72
2021/05/11 16:00:08;;;;;;;2.53;0.50;;;18.20;99.90;;;;;;4937097;29;20229;-73
2021/05/11 16:02:34;;;;;;;0.97;0.43;;;18.30;99.90;;;;;;4937586;29;20208;-71
2021/05/11 16:05:01;;;;;;;1.83;0.50;;;18.30;99.90;;;;;;4936741;29;20213;-69
2021/05/11 16:07:27;;;;;;;2.63;0.60;;;18.30;99.90;;;;;;4936968;29;20209;-70
2021/05/11 16:09:54;;;;;;;0.77;0.33;;;18.50;99.90;;;;;;4937516;29;20270;-73
2021/05/11 16:12:21;;;;;;;1.13;0.30;;;18.70;99.90;;;;;;4937469;29;20267;-70
2021/05/11 16:14:48;;;;;;;0.80;0.37;;;18.80;99.90;;;;;;4937722;29;20213;-72
2021/05/11 16:17:14;;;;;;;1.03;0.40;;;18.80;99.90;;;;;;4937396;29;20209;-71
2021/05/11 16:19:41;;;;;;;2.83;0.87;;;18.80;99.90;;;;;;4937437;29;20248;-69
2021/05/11 16:22:07;;;;;;;1.63;0.33;;;18.80;99.90;;;;;;4937513;29;20221;-69
2021/05/11 16:24:33;;;;;;;0.60;0.40;;;18.80;99.90;;;;;;4937620;29;20209;-70
2021/05/11 16:26:59;;;;;;;1.37;0.50;;;18.80;99.90;;;;;;4937619;29;20209;-70
2021/05/11 16:29:26;;;;;;;1.60;0.50;;;19.00;99.90;;;;;;4937706;29;20229;-69
2021/05/11 16:31:52;;;;;;;1.40;0.70;;;19.30;99.90;;;;;;4936988;29;20711;-68
2021/05/11 16:34:19;;;;;;;0.97;0.40;;;19.60;99.90;;;;;;4937339;29;20805;-69
2021/05/11 16:36:45;;;;;;;0.90;0.30;;;19.50;99.90;;;;;;4936388;29;20201;-71
2021/05/11 16:39:12;;;;;;;2.10;0.60;;;19.50;99.90;;;;;;4937187;29;20232;-71
2021/05/11 16:41:38;;;;;;;0.93;0.30;;;19.40;99.90;;;;;;4937101;29;20209;-69
2021/05/11 16:44:06;;;;;;;1.13;0.43;;;19.20;99.90;;;;;;4936993;29;20244;-70
2021/05/11 16:46:34;;;;;;;2.53;0.47;;;19.10;99.90;;;;;;4936329;29;20220;-70
2021/05/11 16:49:00;;;;;;;1.20;0.43;;;19.10;99.90;;;;;;4937008;29;20237;-70
2021/05/11 16:51:27;;;;;;;0.32;0.30;;;18.90;99.90;;;;;;4936641;29;20339;-71
2021/05/11 16:53:53;;;;;;;1.83;0.47;;;18.90;99.90;;;;;;4937131;29;20216;-70
2021/05/11 16:56:20;;;;;;;1.43;0.43;;;18.70;99.90;;;;;;4936947;29;20212;-70
2021/05/11 16:58:46;;;;;;;2.57;0.40;;;18.70;99.90;;;;;;4936530;29;20287;-70
2021/05/11 17:01:13;;;;;;;0.77;0.30;;;18.50;99.90;;;;;;4936548;29;20304;-69
2021/05/11 17:03:40;;;;;;;2.20;0.50;;;18.50;99.90;;;;;;4936564;29;20212;-71
2021/05/11 17:06:06;;;;;;;1.10;0.60;;;18.60;99.90;;;;;;4936596;29;20213;-70
2021/05/11 17:08:33;;;;;;;0.87;0.50;;;18.70;99.90;;;;;;4936632;29;20228;-70
2021/05/11 17:11:00;;;;;;;2.30;0.63;;;18.70;99.90;;;;;;4936351;29;20208;-70
2021/05/11 17:13:26;;;;;;;1.30;0.50;;;18.80;99.90;;;;;;4936576;29;20648;-72
2021/05/11 17:15:53;;;;;;;1.37;0.50;;;18.80;99.90;;;;;;4935609;29;20608;-71
2021/05/11 17:18:19;;;;;;;1.10;0.40;;;18.80;99.90;;;;;;4935382;29;20232;-70
2021/05/11 17:20:47;;;;;;;1.87;0.50;;;18.70;99.90;;;;;;4936704;29;20644;-68
2021/05/11 17:23:13;;;;;;;1.20;0.40;;;18.70;99.90;;;;;;4936609;29;20213;-71
2021/05/11 17:25:42;;;;;;;2.30;0.73;;;18.60;99.90;;;;;;4936361;29;20230;-71
2021/05/11 17:28:11;;;;;;;1.90;0.70;;;18.50;99.90;;;;;;4936661;29;20209;-71
2021/05/11 17:30:39;;;;;;;2.13;0.50;;;18.20;99.90;;;;;;4936179;29;20283;-70
2021/05/11 17:33:05;;;;;;;3.73;0.50;;;18.00;99.90;;;;;;4936104;29;20621;-71
2021/05/11 17:35:32;;;;;;;3.20;0.60;;;17.70;99.90;;;;;;4936409;29;20209;-72
2021/05/11 17:38:00;;;;;;;1.10;0.43;;;17.40;99.90;;;;;;4936363;29;20221;-71
2021/05/11 17:40:27;;;;;;;2.43;0.53;;;17.30;99.90;;;;;;4936196;29;20337;-71
2021/05/11 17:42:54;;;;;;;1.10;0.40;;;17.30;99.90;;;;;;4935973;29;20239;-71
2021/05/11 17:45:20;;;;;;;0.73;0.40;;;17.20;99.90;;;;;;4935879;29;20300;-71
2021/05/11 17:47:58;;;;;;;0.87;0.30;;;17.20;99.90;;;;;;4935834;29;20223;-71
2021/05/11 17:50:26;;;;;;;1.80;0.50;;;17.10;99.90;;;;;;4935620;29;20774;-71
2021/05/11 17:52:52;;;;;;;0.80;0.43;;;17.10;99.90;;;;;;4935829;29;20237;-70
2021/05/11 17:55:20;;;;;;;1.13;0.50;;;17.10;99.90;;;;;;4936067;29;20209;-71
2021/05/11 17:57:46;;;;;;;2.77;0.77;;;17.00;99.90;;;;;;4935334;29;20683;-71
2021/05/11 18:00:14;;;;;;;1.60;0.63;;;17.00;99.90;;;;;;4935637;29;20237;-71
2021/05/11 18:02:40;;;;;;;1.50;0.50;;;17.00;99.90;;;;;;4935402;29;20573;-71
2021/05/11 18:05:06;;;;;;;1.40;0.50;;;16.90;99.90;;;;;;4935430;29;20209;-71
2021/05/11 18:07:33;;;;;;;3.80;1.67;;;16.90;99.90;;;;;;4935566;29;20213;-71
2021/05/11 18:09:59;;;;;;;1.60;0.70;;;16.90;99.90;;;;;;4935556;29;20236;-71
2021/05/11 18:12:26;;;;;;;3.03;0.70;;;16.70;99.90;;;;;;4918343;29;20284;-70
2021/05/11 18:14:53;;;;;;;1.80;0.70;;;16.80;99.90;;;;;;4935657;29;20205;-69
2021/05/11 18:17:19;;;;;;;1.17;0.70;;;16.70;99.90;;;;;;4935329;29;20209;-69
2021/05/11 18:19:45;;;;;;;4.03;0.80;;;16.50;99.90;;;;;;4935929;29;20232;-71
2021/05/11 18:22:12;;;;;;;2.07;1.07;;;16.40;99.90;;;;;;4935075;29;20213;-71
2021/05/11 18:24:38;;;;;;;2.63;0.90;;;16.00;99.90;;;;;;4934827;29;20201;-70
2021/05/11 18:27:05;;;;;;;2.70;0.70;;;15.90;99.90;;;;;;4935081;29;20216;-71
2021/05/11 18:29:33;;;;;;;4.43;1.30;;;15.80;99.90;;;;;;4935320;29;20246;-69
2021/05/11 18:31:59;;;;;;;2.67;0.80;;;15.70;99.90;;;;;;4935240;29;20232;-70
2021/05/11 18:34:25;;;;;;;2.57;0.90;;;15.50;99.90;;;;;;4935296;29;20205;-71
2021/05/11 18:36:56;;;;;;;2.67;0.90;;;15.30;99.90;;;;;;4934766;29;20227;-72
2021/05/11 18:39:24;;;;;;;2.43;1.00;;;15.10;99.90;;;;;;4934638;29;20588;-71
2021/05/11 18:41:51;;;;;;;3.87;1.10;;;15.30;99.90;;;;;;4934748;29;20227;-70
2021/05/11 18:44:17;;;;;;;2.47;1.20;;;15.40;99.90;;;;;;4935535;29;20208;-72
2021/05/11 18:46:46;;;;;;;2.10;0.90;;;15.40;99.90;;;;;;4935241;29;20300;-70
2021/05/11 18:49:13;;;;;;;2.40;0.80;;;15.40;99.90;;;;;;4935825;29;20264;-72
2021/05/11 18:51:40;;;;;;;2.93;0.80;;;15.40;99.90;;;;;;4935528;29;20215;-71
2021/05/11 18:54:06;;;;;;;3.80;1.00;;;15.40;99.90;;;;;;4935673;29;20628;-71
2021/05/11 18:56:33;;;;;;;2.60;1.37;;;15.40;99.90;;;;;;4935873;29;20205;-72
2021/05/11 18:58:59;;;;;;;2.07;1.03;;;15.30;99.90;;;;;;4935633;29;20284;-69
2021/05/11 19:01:26;;;;;;;1.90;1.00;;;15.40;99.90;;;;;;4935936;29;20568;-72
2021/05/11 19:03:53;;;;;;;3.07;0.83;;;15.30;99.90;;;;;;4935563;29;20213;-70
2021/05/11 19:06:20;;;;;;;2.03;1.10;;;15.30;99.90;;;;;;4935832;29;20279;-70
2021/05/11 19:08:46;;;;;;;2.73;1.00;;;15.30;99.90;;;;;;4935589;29;20580;-72
2021/05/11 19:11:13;;;;;;;2.07;0.90;;;15.30;99.90;;;;;;4935695;29;20256;-71
2021/05/11 19:13:39;;;;;;;3.00;0.90;;;15.20;99.90;;;;;;4935535;29;20244;-72
2021/05/11 19:16:07;;;;;;;1.90;0.93;;;15.30;99.90;;;;;;4935561;29;20263;-71
2021/05/11 19:18:35;;;;;;;4.20;1.23;;;15.40;99.90;;;;;;4935606;29;20354;-71
2021/05/11 19:21:03;;;;;;;3.07;1.03;;;15.40;99.90;;;;;;4935872;29;20213;-71
2021/05/11 19:23:34;;;;;;;2.10;1.30;;;15.30;99.90;;;;;;4935106;29;20209;-71
2021/05/11 19:26:00;;;;;;;4.30;1.13;;;15.10;99.90;;;;;;4935692;29;20220;-71
2021/05/11 19:28:27;;;;;;;6.47;1.67;;;15.00;99.90;;;;;;4935552;29;20233;-71
2021/05/11 19:30:53;;;;;;;2.00;1.20;;;14.90;99.90;;;;;;4935455;29;20212;-71
2021/05/11 19:33:20;;;;;;;1.97;1.20;;;14.80;99.90;;;;;;4935375;29;20240;-71
2021/05/11 19:35:47;;;;;;;2.30;1.43;;;14.70;99.90;;;;;;4935350;29;20212;-71
2021/05/11 19:38:14;;;;;;;2.93;1.10;;;14.60;99.90;;;;;;4935352;29;20295;-71
2021/05/11 19:40:41;;;;;;;3.10;1.30;;;14.60;99.90;;;;;;4937381;29;20216;-70
2021/05/11 19:43:07;;;;;;;1.23;0.80;;;14.60;99.90;;;;;;4939419;29;20216;-70
2021/05/11 19:45:34;;;;;;;2.50;1.00;;;14.50;99.90;;;;;;4938880;29;20209;-70
2021/05/11 19:48:00;;;;;;;3.13;1.30;;;14.50;99.90;;;;;;4938707;29;20699;-71
2021/05/11 19:50:27;;;;;;;2.67;1.30;;;14.40;99.90;;;;;;4938506;29;20212;-71
2021/05/11 19:52:53;;;;;;;4.27;1.03;;;14.30;99.90;;;;;;4938656;29;20237;-70
2021/05/11 19:55:21;;;;;;;3.50;0.73;;;14.30;99.90;;;;;;4938497;29;20217;-71
2021/05/11 19:57:48;;;;;;;1.70;1.10;;;14.30;99.90;;;;;;4938337;29;20208;-70
2021/05/11 20:00:15;;;;;;;1.57;0.80;;;14.20;99.90;;;;;;4938445;29;20229;-70
2021/05/11 20:02:42;;;;;;;2.17;0.90;;;14.20;99.90;;;;;;4938318;29;20216;-71
2021/05/11 20:05:09;;;;;;;3.73;1.70;;;14.20;99.90;;;;;;4938372;29;20213;-71
2021/05/11 20:07:35;;;;;;;2.03;1.10;;;14.10;99.90;;;;;;4938610;29;20209;-70
2021/05/11 20:10:02;;;;;;;1.57;1.03;;;14.10;99.90;;;;;;4938439;29;20232;-70
2021/05/11 20:12:31;;;;;;;1.63;1.00;;;14.00;99.90;;;;;;4938349;29;20233;-71
2021/05/11 20:14:57;;;;;;;2.73;1.20;;;13.90;99.90;;;;;;4938275;29;20213;-70
2021/05/11 20:17:24;;;;;;;1.20;0.90;;;13.90;99.90;;;;;;4938155;29;20213;-70
2021/05/11 20:19:50;;;;;;;1.20;0.90;;;13.90;99.90;;;;;;4938130;29;20228;-70
2021/05/11 20:22:16;;;;;;;3.10;1.10;;;13.80;99.90;;;;;;4938425;29;20228;-70
2021/05/11 20:24:43;;;;;;;2.40;1.00;;;13.80;99.90;;;;;;4938016;29;20240;-71
2021/05/11 20:27:09;;;;;;;1.47;1.00;;;13.70;99.90;;;;;;4938265;29;20347;-71
2021/05/11 20:29:36;;;;;;;3.60;1.13;;;13.70;99.90;;;;;;4937749;29;20723;-71
2021/05/11 20:32:03;;;;;;;2.67;1.27;;;13.70;99.90;;;;;;4938050;29;20212;-71
2021/05/11 20:34:30;;;;;;;1.90;0.90;;;13.80;99.90;;;;;;4938200;29;20212;-70
2021/05/11 20:36:57;;;;;;;1.47;1.00;;;13.70;99.90;;;;;;4937622;29;20584;-71
2021/05/11 20:39:23;;;;;;;2.33;1.20;;;13.60;99.90;;;;;;4937706;29;20636;-71
2021/05/11 20:41:50;;;;;;;3.10;1.33;;;13.60;99.90;;;;;;4937593;29;20612;-71
2021/05/11 20:44:17;;;;;;;2.90;1.10;;;13.60;99.90;;;;;;4937542;29;20228;-70
2021/05/11 20:46:45;;;;;;;1.60;1.10;;;13.60;99.90;;;;;;4937849;29;20224;-71
